Aérodrome :
LOGIN :

S'inscrire | Disclaimer

   EN    FR    IT 

 










Légende :    VFR   VFR Marginal   IFR   IFR Intensif   IFR Très Intensif
Visi : 
Plafond : 
>= 8 km
>= 3000ft
5 à 8 km
1000 à 3000 ft
1500m à 5 km
500 à 1000 ft
800 à 1500m
200 à 500 ft
< 800m
< 200 ft
Symboles :   Orages  Brouillard  Fortes neiges  Fortes précipitations  Vent > 20 kt
SIGMETs :   Divers  Orages  Givrage  Turbulence  Onde Orograph.  Cendres Volcan.







- Altitude de l'aérodrome : 171 ft
- Code IATA : EGC
- Voir les cartes d'approche


LFBE - Bergerac

DERNIER METAR :
  • 290700Z AUTO 24009KT 210V280 3700 RA BR FEW010/// SCT014/// BKN021/// ///CB 15/14 Q1006 TEMPO 25018G28KT 1500 TSRA BKN010 BKN020TCU

METARs EXPIRÉS :
  • 290630Z AUTO 22010KT 190V260 9999 -RA SCT016/// BKN024/// BKN037/// ///TCU 15/13 Q1005 TEMPO 25018G28KT 1500 TSRA BKN020CB
  • 290600Z AUTO 23010KT 190V250 9999 FEW015/// BKN027/// BKN034/// ///TCU 15/13 Q1005 TEMPO 25018G28KT 1500 TSRA BKN020CB
  • 290530Z AUTO 22011KT 9999 FEW017/// BKN029/// BKN040/// ///TCU 15/13 Q1005 TEMPO 25018G28KT 1500 TSRA BKN020CB
  • 290500Z AUTO 23007KT 190V250 9999 SCT013 BKN028 BKN038 15/13 Q1005 TEMPO 25018G28KT 1500 TSRA BKN020CB
  • 290430Z AUTO 25009KT 9999 -RA SCT011/// BKN017/// BKN047/// ///TCU 15/14 Q1005 TEMPO 25018G28KT 1500 TSRA BKN020CB

TAF TAF LFBE
Valide du 29 à 06h jusqu'au 30 à 06h UTC


290500Z 2906/3006 25012KT 9999 BKN030
TEMPO 2906/3006 25018G28KT 4500 SHRA BKN010 BKN020TCU
PROB40
TEMPO 2906/3006 1500 TSRA BKN020CB
Pas de NOTAMs connus pour ce terrain.
1 SIGMET publié pour la FIR Bordeaux (LFBB) :
 
Turbulence forte
LFBB SIGMET 1 VALID 290530/290930 LFPW
LFBB BORDEAUX FIR/UIR SEV TURB FCST WI N4300 W00130 - N4300 W00145 - N4445 W00145 - N4500 W00100 SFC/FL050 STNR INTSF=



MET'MAP, la Météo Aéronautique d'un coup d'oeil ! - Copyright ORBIFLY Décembre 2007 - Disclaimer

ORBIFLY MET'MAP TEAM :

Programmation & Développement : Alexandra Zaïnal
Conception & Développement : Baudouin d'Aumeries
Co-Programmation & Développement : Marc-Olivier Méhu
Soutien technique & logistique : Manuel Goepfert

Contact : metmap@orbifly.com




SOURCES & CREDITS :

   NOAA